sensor_id;sensor_type;location;lat;lon;timestamp;P1;durP1;ratioP1;P2;durP2;ratioP2
57303;SDS011;43150;50.986;18.208;2023-02-01T00:02:00;6.50;;;0.90;;
57303;SDS011;43150;50.986;18.208;2023-02-01T00:04:28;5.20;;;1.20;;
57303;SDS011;43150;50.986;18.208;2023-02-01T00:07:12;1.80;;;0.80;;
57303;SDS011;43150;50.986;18.208;2023-02-01T00:09:39;3.00;;;0.80;;
57303;SDS011;43150;50.986;18.208;2023-02-01T00:12:05;4.80;;;0.80;;
57303;SDS011;43150;50.986;18.208;2023-02-01T00:17:22;1.40;;;0.60;;
57303;SDS011;43150;50.986;18.208;2023-02-01T00:19:50;5.10;;;0.90;;
57303;SDS011;43150;50.986;18.208;2023-02-01T00:22:22;3.30;;;1.10;;
57303;SDS011;43150;50.986;18.208;2023-02-01T00:24:54;4.00;;;0.60;;
57303;SDS011;43150;50.986;18.208;2023-02-01T00:27:20;3.00;;;0.70;;
57303;SDS011;43150;50.986;18.208;2023-02-01T00:30:06;5.60;;;0.80;;
57303;SDS011;43150;50.986;18.208;2023-02-01T00:32:32;4.70;;;0.90;;
57303;SDS011;43150;50.986;18.208;2023-02-01T00:34:58;2.60;;;0.50;;
57303;SDS011;43150;50.986;18.208;2023-02-01T00:37:23;2.00;;;0.80;;
57303;SDS011;43150;50.986;18.208;2023-02-01T00:39:49;5.70;;;1.00;;
57303;SDS011;43150;50.986;18.208;2023-02-01T00:42:15;3.30;;;1.00;;
57303;SDS011;43150;50.986;18.208;2023-02-01T00:44:40;2.90;;;0.80;;
57303;SDS011;43150;50.986;18.208;2023-02-01T00:47:06;3.30;;;1.00;;
57303;SDS011;43150;50.986;18.208;2023-02-01T00:49:35;3.60;;;0.90;;
57303;SDS011;43150;50.986;18.208;2023-02-01T00:52:01;3.30;;;1.10;;
57303;SDS011;43150;50.986;18.208;2023-02-01T00:54:28;6.50;;;1.70;;
57303;SDS011;43150;50.986;18.208;2023-02-01T00:57:00;4.40;;;1.40;;
57303;SDS011;43150;50.986;18.208;2023-02-01T00:59:37;5.10;;;0.90;;
57303;SDS011;43150;50.986;18.208;2023-02-01T01:02:03;4.90;;;1.00;;
57303;SDS011;43150;50.986;18.208;2023-02-01T01:04:33;3.70;;;0.90;;
57303;SDS011;43150;50.986;18.208;2023-02-01T01:06:58;2.00;;;0.90;;
57303;SDS011;43150;50.986;18.208;2023-02-01T01:09:24;3.70;;;1.10;;
57303;SDS011;43150;50.986;18.208;2023-02-01T01:11:50;3.60;;;1.10;;
57303;SDS011;43150;50.986;18.208;2023-02-01T01:14:24;5.30;;;1.00;;
57303;SDS011;43150;50.986;18.208;2023-02-01T01:16:54;8.50;;;1.20;;
57303;SDS011;43150;50.986;18.208;2023-02-01T01:19:20;5.70;;;1.20;;
57303;SDS011;43150;50.986;18.208;2023-02-01T01:21:46;2.10;;;0.60;;
57303;SDS011;43150;50.986;18.208;2023-02-01T01:24:11;3.40;;;0.90;;
57303;SDS011;43150;50.986;18.208;2023-02-01T01:26:37;5.50;;;1.30;;
57303;SDS011;43150;50.986;18.208;2023-02-01T01:29:06;4.80;;;1.10;;
57303;SDS011;43150;50.986;18.208;2023-02-01T01:31:32;2.90;;;0.70;;
57303;SDS011;43150;50.986;18.208;2023-02-01T01:33:58;2.80;;;0.70;;
57303;SDS011;43150;50.986;18.208;2023-02-01T01:36:24;4.30;;;0.80;;
57303;SDS011;43150;50.986;18.208;2023-02-01T01:38:50;3.00;;;0.80;;
57303;SDS011;43150;50.986;18.208;2023-02-01T01:41:17;6.80;;;1.20;;
57303;SDS011;43150;50.986;18.208;2023-02-01T01:46:14;4.80;;;1.10;;
57303;SDS011;43150;50.986;18.208;2023-02-01T01:48:40;4.80;;;1.30;;
57303;SDS011;43150;50.986;18.208;2023-02-01T01:51:07;3.80;;;0.90;;
57303;SDS011;43150;50.986;18.208;2023-02-01T01:53:36;2.80;;;0.70;;
57303;SDS011;43150;50.986;18.208;2023-02-01T01:56:03;3.20;;;0.60;;
57303;SDS011;43150;50.986;18.208;2023-02-01T01:58:30;2.70;;;0.70;;
57303;SDS011;43150;50.986;18.208;2023-02-01T02:00:57;1.60;;;0.60;;
57303;SDS011;43150;50.986;18.208;2023-02-01T02:05:49;4.90;;;0.80;;
57303;SDS011;43150;50.986;18.208;2023-02-01T02:08:15;4.60;;;1.10;;
57303;SDS011;43150;50.986;18.208;2023-02-01T02:10:42;4.70;;;1.10;;
57303;SDS011;43150;50.986;18.208;2023-02-01T02:13:46;3.50;;;0.80;;
57303;SDS011;43150;50.986;18.208;2023-02-01T02:16:17;2.50;;;0.90;;
57303;SDS011;43150;50.986;18.208;2023-02-01T02:34:55;3.30;;;0.80;;
57303;SDS011;43150;50.986;18.208;2023-02-01T02:40:19;4.10;;;1.00;;
57303;SDS011;43150;50.986;18.208;2023-02-01T02:48:22;3.60;;;1.00;;
57303;SDS011;43150;50.986;18.208;2023-02-01T02:53:38;4.80;;;0.90;;
57303;SDS011;43150;50.986;18.208;2023-02-01T02:56:27;3.20;;;0.90;;
57303;SDS011;43150;50.986;18.208;2023-02-01T02:59:12;5.00;;;0.90;;
57303;SDS011;43150;50.986;18.208;2023-02-01T03:01:58;4.20;;;0.80;;
57303;SDS011;43150;50.986;18.208;2023-02-01T03:04:42;3.80;;;0.70;;
57303;SDS011;43150;50.986;18.208;2023-02-01T03:09:40;4.80;;;1.20;;
57303;SDS011;43150;50.986;18.208;2023-02-01T03:12:09;3.30;;;0.90;;
57303;SDS011;43150;50.986;18.208;2023-02-01T03:15:00;1.60;;;0.70;;
57303;SDS011;43150;50.986;18.208;2023-02-01T03:17:30;3.80;;;0.90;;
57303;SDS011;43150;50.986;18.208;2023-02-01T03:19:58;1.90;;;0.40;;
57303;SDS011;43150;50.986;18.208;2023-02-01T03:22:26;6.10;;;0.80;;
57303;SDS011;43150;50.986;18.208;2023-02-01T03:24:54;3.10;;;0.60;;
57303;SDS011;43150;50.986;18.208;2023-02-01T03:27:21;2.80;;;0.90;;
57303;SDS011;43150;50.986;18.208;2023-02-01T03:29:50;5.50;;;0.80;;
57303;SDS011;43150;50.986;18.208;2023-02-01T03:32:16;2.70;;;0.70;;
57303;SDS011;43150;50.986;18.208;2023-02-01T03:34:42;1.80;;;0.80;;
57303;SDS011;43150;50.986;18.208;2023-02-01T03:37:09;3.60;;;0.70;;
57303;SDS011;43150;50.986;18.208;2023-02-01T03:42:25;5.80;;;1.50;;
57303;SDS011;43150;50.986;18.208;2023-02-01T03:44:54;6.90;;;1.40;;
57303;SDS011;43150;50.986;18.208;2023-02-01T03:47:26;6.00;;;1.20;;
57303;SDS011;43150;50.986;18.208;2023-02-01T03:50:14;7.00;;;1.10;;
57303;SDS011;43150;50.986;18.208;2023-02-01T03:52:43;6.20;;;1.20;;
57303;SDS011;43150;50.986;18.208;2023-02-01T03:55:09;2.60;;;1.10;;
57303;SDS011;43150;50.986;18.208;2023-02-01T03:57:41;6.20;;;1.30;;
57303;SDS011;43150;50.986;18.208;2023-02-01T04:00:13;2.80;;;0.80;;
57303;SDS011;43150;50.986;18.208;2023-02-01T04:02:43;4.70;;;1.30;;
57303;SDS011;43150;50.986;18.208;2023-02-01T04:05:08;7.40;;;1.50;;
57303;SDS011;43150;50.986;18.208;2023-02-01T04:07:34;3.90;;;1.00;;
57303;SDS011;43150;50.986;18.208;2023-02-01T04:10:00;5.10;;;0.80;;
57303;SDS011;43150;50.986;18.208;2023-02-01T04:12:44;7.00;;;0.80;;
57303;SDS011;43150;50.986;18.208;2023-02-01T04:15:10;6.80;;;1.50;;
57303;SDS011;43150;50.986;18.208;2023-02-01T04:17:35;10.10;;;1.60;;
57303;SDS011;43150;50.986;18.208;2023-02-01T04:20:01;6.40;;;1.10;;
57303;SDS011;43150;50.986;18.208;2023-02-01T04:22:26;8.30;;;1.10;;
57303;SDS011;43150;50.986;18.208;2023-02-01T04:24:53;5.80;;;1.10;;
57303;SDS011;43150;50.986;18.208;2023-02-01T04:27:19;6.90;;;1.10;;
57303;SDS011;43150;50.986;18.208;2023-02-01T04:29:47;3.40;;;1.30;;
57303;SDS011;43150;50.986;18.208;2023-02-01T04:32:15;9.90;;;1.60;;
57303;SDS011;43150;50.986;18.208;2023-02-01T04:34:41;5.70;;;1.40;;
57303;SDS011;43150;50.986;18.208;2023-02-01T04:37:06;7.90;;;1.70;;
57303;SDS011;43150;50.986;18.208;2023-02-01T04:39:32;10.40;;;1.50;;
57303;SDS011;43150;50.986;18.208;2023-02-01T04:41:58;5.70;;;1.40;;
57303;SDS011;43150;50.986;18.208;2023-02-01T04:44:26;9.90;;;2.00;;
57303;SDS011;43150;50.986;18.208;2023-02-01T04:46:51;5.00;;;1.60;;
57303;SDS011;43150;50.986;18.208;2023-02-01T04:49:17;4.20;;;1.40;;
57303;SDS011;43150;50.986;18.208;2023-02-01T04:51:42;6.60;;;2.00;;
57303;SDS011;43150;50.986;18.208;2023-02-01T04:54:08;6.30;;;1.70;;
57303;SDS011;43150;50.986;18.208;2023-02-01T04:56:36;13.40;;;2.10;;
57303;SDS011;43150;50.986;18.208;2023-02-01T04:59:10;4.20;;;1.50;;
57303;SDS011;43150;50.986;18.208;2023-02-01T05:01:35;4.10;;;0.90;;
57303;SDS011;43150;50.986;18.208;2023-02-01T05:04:01;10.30;;;1.60;;
57303;SDS011;43150;50.986;18.208;2023-02-01T05:06:27;8.00;;;1.70;;
57303;SDS011;43150;50.986;18.208;2023-02-01T05:08:53;5.60;;;1.10;;
57303;SDS011;43150;50.986;18.208;2023-02-01T05:11:18;11.80;;;1.70;;
57303;SDS011;43150;50.986;18.208;2023-02-01T05:14:02;3.40;;;1.50;;
57303;SDS011;43150;50.986;18.208;2023-02-01T05:16:28;4.80;;;1.70;;
57303;SDS011;43150;50.986;18.208;2023-02-01T05:18:54;4.20;;;1.60;;
57303;SDS011;43150;50.986;18.208;2023-02-01T05:21:19;4.20;;;1.30;;
57303;SDS011;43150;50.986;18.208;2023-02-01T05:23:45;6.30;;;1.80;;
57303;SDS011;43150;50.986;18.208;2023-02-01T05:26:29;5.40;;;1.70;;
57303;SDS011;43150;50.986;18.208;2023-02-01T05:28:55;3.20;;;1.70;;
57303;SDS011;43150;50.986;18.208;2023-02-01T05:31:21;5.50;;;1.40;;
57303;SDS011;43150;50.986;18.208;2023-02-01T05:33:47;7.20;;;1.30;;
57303;SDS011;43150;50.986;18.208;2023-02-01T05:36:13;3.20;;;0.90;;
57303;SDS011;43150;50.986;18.208;2023-02-01T05:38:38;7.00;;;1.10;;
57303;SDS011;43150;50.986;18.208;2023-02-01T05:41:04;6.60;;;1.50;;
57303;SDS011;43150;50.986;18.208;2023-02-01T05:43:29;6.50;;;1.70;;
57303;SDS011;43150;50.986;18.208;2023-02-01T05:45:55;4.70;;;1.70;;
57303;SDS011;43150;50.986;18.208;2023-02-01T05:48:21;7.40;;;1.40;;
57303;SDS011;43150;50.986;18.208;2023-02-01T05:50:46;5.80;;;1.20;;
57303;SDS011;43150;50.986;18.208;2023-02-01T05:53:12;8.10;;;1.70;;
57303;SDS011;43150;50.986;18.208;2023-02-01T05:55:38;6.40;;;1.40;;
57303;SDS011;43150;50.986;18.208;2023-02-01T05:58:03;6.80;;;1.20;;
57303;SDS011;43150;50.986;18.208;2023-02-01T06:00:32;4.70;;;1.40;;
57303;SDS011;43150;50.986;18.208;2023-02-01T06:02:58;4.30;;;1.20;;
57303;SDS011;43150;50.986;18.208;2023-02-01T06:05:24;9.60;;;2.00;;
57303;SDS011;43150;50.986;18.208;2023-02-01T06:07:49;5.00;;;1.50;;
57303;SDS011;43150;50.986;18.208;2023-02-01T06:10:16;9.30;;;1.60;;
57303;SDS011;43150;50.986;18.208;2023-02-01T06:12:42;8.20;;;1.50;;
57303;SDS011;43150;50.986;18.208;2023-02-01T06:15:10;10.00;;;2.60;;
57303;SDS011;43150;50.986;18.208;2023-02-01T06:17:38;9.80;;;2.20;;
57303;SDS011;43150;50.986;18.208;2023-02-01T06:20:06;6.80;;;2.00;;
57303;SDS011;43150;50.986;18.208;2023-02-01T06:22:32;4.70;;;1.60;;
57303;SDS011;43150;50.986;18.208;2023-02-01T06:24:58;6.90;;;2.00;;
57303;SDS011;43150;50.986;18.208;2023-02-01T06:27:24;5.80;;;1.60;;
57303;SDS011;43150;50.986;18.208;2023-02-01T06:29:50;7.50;;;2.30;;
57303;SDS011;43150;50.986;18.208;2023-02-01T06:32:16;18.10;;;6.10;;
57303;SDS011;43150;50.986;18.208;2023-02-01T06:34:42;6.10;;;2.80;;
57303;SDS011;43150;50.986;18.208;2023-02-01T06:37:08;6.10;;;1.80;;
57303;SDS011;43150;50.986;18.208;2023-02-01T06:39:36;6.30;;;2.30;;
57303;SDS011;43150;50.986;18.208;2023-02-01T06:42:02;10.40;;;2.20;;
57303;SDS011;43150;50.986;18.208;2023-02-01T06:44:28;6.80;;;1.60;;
57303;SDS011;43150;50.986;18.208;2023-02-01T06:46:53;9.20;;;1.10;;
57303;SDS011;43150;50.986;18.208;2023-02-01T06:49:20;10.50;;;1.40;;
57303;SDS011;43150;50.986;18.208;2023-02-01T06:51:46;7.20;;;1.50;;
57303;SDS011;43150;50.986;18.208;2023-02-01T06:54:11;8.10;;;1.90;;
57303;SDS011;43150;50.986;18.208;2023-02-01T06:56:36;6.90;;;1.60;;
57303;SDS011;43150;50.986;18.208;2023-02-01T06:59:06;12.00;;;1.70;;
57303;SDS011;43150;50.986;18.208;2023-02-01T07:01:33;7.90;;;1.90;;
57303;SDS011;43150;50.986;18.208;2023-02-01T07:03:59;5.20;;;1.70;;
57303;SDS011;43150;50.986;18.208;2023-02-01T07:06:24;8.00;;;2.40;;
57303;SDS011;43150;50.986;18.208;2023-02-01T07:08:50;5.00;;;1.30;;
57303;SDS011;43150;50.986;18.208;2023-02-01T07:11:17;6.10;;;2.10;;
57303;SDS011;43150;50.986;18.208;2023-02-01T07:13:47;6.70;;;1.70;;
57303;SDS011;43150;50.986;18.208;2023-02-01T07:16:16;7.90;;;1.30;;
57303;SDS011;43150;50.986;18.208;2023-02-01T07:18:42;8.00;;;2.10;;
57303;SDS011;43150;50.986;18.208;2023-02-01T07:21:08;10.70;;;1.80;;
57303;SDS011;43150;50.986;18.208;2023-02-01T07:23:34;6.30;;;1.40;;
57303;SDS011;43150;50.986;18.208;2023-02-01T07:26:03;7.70;;;1.50;;
57303;SDS011;43150;50.986;18.208;2023-02-01T07:28:30;9.40;;;1.40;;
57303;SDS011;43150;50.986;18.208;2023-02-01T07:31:01;9.10;;;2.20;;
57303;SDS011;43150;50.986;18.208;2023-02-01T07:33:27;5.70;;;2.00;;
57303;SDS011;43150;50.986;18.208;2023-02-01T07:35:53;11.00;;;1.90;;
57303;SDS011;43150;50.986;18.208;2023-02-01T07:38:19;7.80;;;2.50;;
57303;SDS011;43150;50.986;18.208;2023-02-01T07:40:46;7.60;;;2.10;;
57303;SDS011;43150;50.986;18.208;2023-02-01T07:43:12;7.80;;;2.30;;
57303;SDS011;43150;50.986;18.208;2023-02-01T07:45:38;8.00;;;2.00;;
57303;SDS011;43150;50.986;18.208;2023-02-01T07:48:04;5.70;;;1.50;;
57303;SDS011;43150;50.986;18.208;2023-02-01T07:50:29;3.50;;;1.40;;
57303;SDS011;43150;50.986;18.208;2023-02-01T07:52:55;8.90;;;2.30;;
57303;SDS011;43150;50.986;18.208;2023-02-01T07:55:23;14.20;;;5.30;;
57303;SDS011;43150;50.986;18.208;2023-02-01T07:57:50;9.50;;;4.60;;
57303;SDS011;43150;50.986;18.208;2023-02-01T08:00:16;8.40;;;3.30;;
57303;SDS011;43150;50.986;18.208;2023-02-01T08:03:00;7.70;;;3.70;;
57303;SDS011;43150;50.986;18.208;2023-02-01T08:05:26;11.30;;;2.80;;
57303;SDS011;43150;50.986;18.208;2023-02-01T08:07:55;9.90;;;2.80;;
57303;SDS011;43150;50.986;18.208;2023-02-01T08:10:20;8.10;;;2.90;;
57303;SDS011;43150;50.986;18.208;2023-02-01T08:12:46;9.80;;;3.30;;
57303;SDS011;43150;50.986;18.208;2023-02-01T08:15:18;16.00;;;5.10;;
57303;SDS011;43150;50.986;18.208;2023-02-01T08:17:50;10.50;;;4.30;;
57303;SDS011;43150;50.986;18.208;2023-02-01T08:20:16;8.50;;;2.60;;
57303;SDS011;43150;50.986;18.208;2023-02-01T08:22:42;10.80;;;3.10;;
57303;SDS011;43150;50.986;18.208;2023-02-01T08:25:08;7.90;;;2.80;;
57303;SDS011;43150;50.986;18.208;2023-02-01T08:27:39;9.10;;;2.80;;
57303;SDS011;43150;50.986;18.208;2023-02-01T08:30:07;7.10;;;1.90;;
57303;SDS011;43150;50.986;18.208;2023-02-01T08:32:33;9.40;;;2.50;;
57303;SDS011;43150;50.986;18.208;2023-02-01T08:34:58;6.00;;;2.20;;
57303;SDS011;43150;50.986;18.208;2023-02-01T08:37:26;5.90;;;2.10;;
57303;SDS011;43150;50.986;18.208;2023-02-01T08:39:52;8.30;;;2.50;;
57303;SDS011;43150;50.986;18.208;2023-02-01T08:42:17;5.60;;;1.90;;
57303;SDS011;43150;50.986;18.208;2023-02-01T08:45:03;10.60;;;1.90;;
57303;SDS011;43150;50.986;18.208;2023-02-01T08:47:29;7.80;;;2.20;;
57303;SDS011;43150;50.986;18.208;2023-02-01T08:49:56;7.80;;;1.90;;
57303;SDS011;43150;50.986;18.208;2023-02-01T08:52:22;7.00;;;2.50;;
57303;SDS011;43150;50.986;18.208;2023-02-01T08:54:47;8.10;;;2.10;;
57303;SDS011;43150;50.986;18.208;2023-02-01T08:57:13;8.00;;;2.00;;
57303;SDS011;43150;50.986;18.208;2023-02-01T08:59:38;7.30;;;2.00;;
57303;SDS011;43150;50.986;18.208;2023-02-01T09:02:04;6.60;;;2.90;;
57303;SDS011;43150;50.986;18.208;2023-02-01T09:04:30;4.90;;;1.90;;
57303;SDS011;43150;50.986;18.208;2023-02-01T09:06:55;8.20;;;2.40;;
57303;SDS011;43150;50.986;18.208;2023-02-01T09:09:22;8.70;;;2.60;;
57303;SDS011;43150;50.986;18.208;2023-02-01T09:11:50;6.50;;;1.50;;
57303;SDS011;43150;50.986;18.208;2023-02-01T09:14:16;5.80;;;2.10;;
57303;SDS011;43150;50.986;18.208;2023-02-01T09:16:42;6.70;;;2.00;;
57303;SDS011;43150;50.986;18.208;2023-02-01T09:19:07;6.30;;;1.80;;
57303;SDS011;43150;50.986;18.208;2023-02-01T09:21:33;6.90;;;1.80;;
57303;SDS011;43150;50.986;18.208;2023-02-01T09:23:59;7.40;;;2.20;;
57303;SDS011;43150;50.986;18.208;2023-02-01T09:26:32;6.70;;;1.80;;
57303;SDS011;43150;50.986;18.208;2023-02-01T09:28:58;5.70;;;1.30;;
57303;SDS011;43150;50.986;18.208;2023-02-01T09:31:35;5.60;;;2.00;;
57303;SDS011;43150;50.986;18.208;2023-02-01T09:34:00;6.80;;;1.60;;
57303;SDS011;43150;50.986;18.208;2023-02-01T09:36:26;2.80;;;1.10;;
57303;SDS011;43150;50.986;18.208;2023-02-01T09:38:52;7.00;;;1.90;;
57303;SDS011;43150;50.986;18.208;2023-02-01T09:46:32;8.10;;;2.00;;
57303;SDS011;43150;50.986;18.208;2023-02-01T09:49:08;6.30;;;1.70;;
57303;SDS011;43150;50.986;18.208;2023-02-01T09:51:41;6.60;;;1.70;;
57303;SDS011;43150;50.986;18.208;2023-02-01T09:54:11;6.10;;;1.60;;
57303;SDS011;43150;50.986;18.208;2023-02-01T09:56:47;5.10;;;1.70;;
57303;SDS011;43150;50.986;18.208;2023-02-01T10:01:44;8.10;;;1.90;;
57303;SDS011;43150;50.986;18.208;2023-02-01T10:04:12;6.20;;;2.00;;
57303;SDS011;43150;50.986;18.208;2023-02-01T10:06:41;5.30;;;1.70;;
57303;SDS011;43150;50.986;18.208;2023-02-01T10:17:29;8.60;;;2.40;;
57303;SDS011;43150;50.986;18.208;2023-02-01T10:27:37;7.40;;;1.80;;
57303;SDS011;43150;50.986;18.208;2023-02-01T10:30:17;6.30;;;1.50;;
57303;SDS011;43150;50.986;18.208;2023-02-01T10:32:55;9.90;;;2.40;;
57303;SDS011;43150;50.986;18.208;2023-02-01T10:35:24;7.60;;;2.10;;
57303;SDS011;43150;50.986;18.208;2023-02-01T10:40:51;9.40;;;3.00;;
57303;SDS011;43150;50.986;18.208;2023-02-01T10:43:17;6.30;;;2.50;;
57303;SDS011;43150;50.986;18.208;2023-02-01T10:45:44;6.30;;;2.20;;
57303;SDS011;43150;50.986;18.208;2023-02-01T10:48:09;10.10;;;1.90;;
57303;SDS011;43150;50.986;18.208;2023-02-01T10:50:37;5.30;;;2.10;;
57303;SDS011;43150;50.986;18.208;2023-02-01T10:55:51;9.20;;;3.40;;
57303;SDS011;43150;50.986;18.208;2023-02-01T10:58:26;7.60;;;3.10;;
57303;SDS011;43150;50.986;18.208;2023-02-01T11:03:20;8.30;;;2.80;;
57303;SDS011;43150;50.986;18.208;2023-02-01T11:05:46;6.80;;;1.90;;
57303;SDS011;43150;50.986;18.208;2023-02-01T11:08:16;4.00;;;1.50;;
57303;SDS011;43150;50.986;18.208;2023-02-01T11:10:43;5.20;;;1.60;;
57303;SDS011;43150;50.986;18.208;2023-02-01T11:13:16;3.70;;;1.20;;
57303;SDS011;43150;50.986;18.208;2023-02-01T11:15:54;6.90;;;1.80;;
57303;SDS011;43150;50.986;18.208;2023-02-01T11:18:26;6.00;;;1.40;;
57303;SDS011;43150;50.986;18.208;2023-02-01T11:21:00;4.70;;;1.90;;
57303;SDS011;43150;50.986;18.208;2023-02-01T11:23:27;4.70;;;1.20;;
57303;SDS011;43150;50.986;18.208;2023-02-01T11:25:55;6.30;;;2.00;;
57303;SDS011;43150;50.986;18.208;2023-02-01T11:28:23;6.50;;;1.80;;
57303;SDS011;43150;50.986;18.208;2023-02-01T11:30:50;7.30;;;2.30;;
57303;SDS011;43150;50.986;18.208;2023-02-01T11:33:19;3.40;;;1.50;;
57303;SDS011;43150;50.986;18.208;2023-02-01T11:35:46;3.50;;;1.80;;
57303;SDS011;43150;50.986;18.208;2023-02-01T11:40:44;3.20;;;1.60;;
57303;SDS011;43150;50.986;18.208;2023-02-01T11:45:35;4.90;;;2.00;;
57303;SDS011;43150;50.986;18.208;2023-02-01T11:48:07;6.90;;;2.00;;
57303;SDS011;43150;50.986;18.208;2023-02-01T11:50:35;6.90;;;1.90;;
57303;SDS011;43150;50.986;18.208;2023-02-01T11:58:20;16.30;;;8.10;;
57303;SDS011;43150;50.986;18.208;2023-02-01T12:00:53;16.20;;;6.10;;
57303;SDS011;43150;50.986;18.208;2023-02-01T12:14:08;20.90;;;8.30;;
57303;SDS011;43150;50.986;18.208;2023-02-01T12:16:46;28.50;;;10.00;;
57303;SDS011;43150;50.986;18.208;2023-02-01T12:45:58;6.50;;;2.10;;
57303;SDS011;43150;50.986;18.208;2023-02-01T12:51:24;6.70;;;2.20;;
57303;SDS011;43150;50.986;18.208;2023-02-01T12:56:31;3.70;;;1.70;;
57303;SDS011;43150;50.986;18.208;2023-02-01T12:59:01;6.90;;;2.10;;
57303;SDS011;43150;50.986;18.208;2023-02-01T13:01:40;5.60;;;2.90;;
57303;SDS011;43150;50.986;18.208;2023-02-01T13:06:50;4.80;;;2.50;;
57303;SDS011;43150;50.986;18.208;2023-02-01T13:09:24;8.00;;;4.70;;
57303;SDS011;43150;50.986;18.208;2023-02-01T13:12:04;6.90;;;4.20;;
57303;SDS011;43150;50.986;18.208;2023-02-01T13:19:47;4.40;;;3.20;;
57303;SDS011;43150;50.986;18.208;2023-02-01T13:22:17;6.00;;;2.30;;
57303;SDS011;43150;50.986;18.208;2023-02-01T13:27:29;4.50;;;1.90;;
57303;SDS011;43150;50.986;18.208;2023-02-01T13:30:03;3.10;;;2.10;;
57303;SDS011;43150;50.986;18.208;2023-02-01T13:43:01;4.50;;;2.60;;
57303;SDS011;43150;50.986;18.208;2023-02-01T13:45:29;3.40;;;2.20;;
57303;SDS011;43150;50.986;18.208;2023-02-01T13:48:04;3.30;;;2.00;;
57303;SDS011;43150;50.986;18.208;2023-02-01T13:53:03;4.00;;;2.40;;
57303;SDS011;43150;50.986;18.208;2023-02-01T13:55:34;4.10;;;2.80;;
57303;SDS011;43150;50.986;18.208;2023-02-01T13:58:06;3.90;;;3.00;;
57303;SDS011;43150;50.986;18.208;2023-02-01T14:00:40;4.90;;;3.00;;
57303;SDS011;43150;50.986;18.208;2023-02-01T14:03:18;4.80;;;3.00;;
57303;SDS011;43150;50.986;18.208;2023-02-01T14:08:23;6.70;;;3.30;;
57303;SDS011;43150;50.986;18.208;2023-02-01T14:10:55;11.00;;;4.70;;
57303;SDS011;43150;50.986;18.208;2023-02-01T14:13:25;6.70;;;3.70;;
57303;SDS011;43150;50.986;18.208;2023-02-01T14:16:11;4.30;;;3.10;;
57303;SDS011;43150;50.986;18.208;2023-02-01T14:18:48;4.60;;;2.60;;
57303;SDS011;43150;50.986;18.208;2023-02-01T14:29:09;4.70;;;1.80;;
57303;SDS011;43150;50.986;18.208;2023-02-01T14:34:48;4.10;;;1.90;;
57303;SDS011;43150;50.986;18.208;2023-02-01T14:40:02;3.80;;;1.60;;
57303;SDS011;43150;50.986;18.208;2023-02-01T14:42:45;5.90;;;1.80;;
57303;SDS011;43150;50.986;18.208;2023-02-01T14:50:41;3.70;;;1.70;;
57303;SDS011;43150;50.986;18.208;2023-02-01T15:01:16;3.00;;;1.20;;
57303;SDS011;43150;50.986;18.208;2023-02-01T15:04:10;4.80;;;1.70;;
57303;SDS011;43150;50.986;18.208;2023-02-01T15:09:14;2.60;;;1.50;;
57303;SDS011;43150;50.986;18.208;2023-02-01T15:14:39;2.60;;;1.50;;
57303;SDS011;43150;50.986;18.208;2023-02-01T15:17:20;5.70;;;1.90;;
57303;SDS011;43150;50.986;18.208;2023-02-01T15:19:53;3.70;;;1.40;;
57303;SDS011;43150;50.986;18.208;2023-02-01T15:22:19;2.80;;;1.60;;
57303;SDS011;43150;50.986;18.208;2023-02-01T15:24:51;4.80;;;1.80;;
57303;SDS011;43150;50.986;18.208;2023-02-01T15:27:17;2.30;;;1.30;;
57303;SDS011;43150;50.986;18.208;2023-02-01T15:29:43;3.40;;;2.00;;
57303;SDS011;43150;50.986;18.208;2023-02-01T15:40:56;2.50;;;1.10;;
57303;SDS011;43150;50.986;18.208;2023-02-01T15:43:23;4.30;;;2.30;;
57303;SDS011;43150;50.986;18.208;2023-02-01T15:45:48;4.00;;;1.30;;
57303;SDS011;43150;50.986;18.208;2023-02-01T15:48:24;6.30;;;1.80;;
57303;SDS011;43150;50.986;18.208;2023-02-01T15:50:52;3.30;;;1.40;;
57303;SDS011;43150;50.986;18.208;2023-02-01T15:53:20;6.20;;;2.30;;
57303;SDS011;43150;50.986;18.208;2023-02-01T15:58:23;9.20;;;2.40;;
57303;SDS011;43150;50.986;18.208;2023-02-01T16:00:52;8.10;;;2.80;;
57303;SDS011;43150;50.986;18.208;2023-02-01T16:08:52;3.90;;;1.80;;
57303;SDS011;43150;50.986;18.208;2023-02-01T16:11:24;4.70;;;1.40;;
57303;SDS011;43150;50.986;18.208;2023-02-01T16:13:50;2.20;;;0.90;;
57303;SDS011;43150;50.986;18.208;2023-02-01T16:16:16;8.60;;;2.70;;
57303;SDS011;43150;50.986;18.208;2023-02-01T16:18:42;5.30;;;2.00;;
57303;SDS011;43150;50.986;18.208;2023-02-01T16:21:09;10.30;;;4.00;;
57303;SDS011;43150;50.986;18.208;2023-02-01T16:23:38;6.30;;;1.60;;
57303;SDS011;43150;50.986;18.208;2023-02-01T16:26:04;11.50;;;4.00;;
57303;SDS011;43150;50.986;18.208;2023-02-01T16:28:31;12.20;;;4.40;;
57303;SDS011;43150;50.986;18.208;2023-02-01T16:30:57;11.50;;;4.20;;
57303;SDS011;43150;50.986;18.208;2023-02-01T16:33:23;13.00;;;4.90;;
57303;SDS011;43150;50.986;18.208;2023-02-01T16:35:49;10.40;;;4.50;;
57303;SDS011;43150;50.986;18.208;2023-02-01T16:38:16;13.30;;;5.10;;
57303;SDS011;43150;50.986;18.208;2023-02-01T16:40:44;13.70;;;5.10;;
57303;SDS011;43150;50.986;18.208;2023-02-01T16:45:41;8.80;;;4.70;;
57303;SDS011;43150;50.986;18.208;2023-02-01T16:48:14;18.40;;;9.60;;
57303;SDS011;43150;50.986;18.208;2023-02-01T16:50:42;13.40;;;6.40;;
57303;SDS011;43150;50.986;18.208;2023-02-01T16:53:08;8.10;;;4.10;;
57303;SDS011;43150;50.986;18.208;2023-02-01T16:55:36;8.90;;;3.80;;
57303;SDS011;43150;50.986;18.208;2023-02-01T16:58:02;7.80;;;4.00;;
57303;SDS011;43150;50.986;18.208;2023-02-01T17:00:28;9.70;;;3.90;;
57303;SDS011;43150;50.986;18.208;2023-02-01T17:03:05;9.70;;;4.00;;
57303;SDS011;43150;50.986;18.208;2023-02-01T17:05:31;12.00;;;5.10;;
57303;SDS011;43150;50.986;18.208;2023-02-01T17:07:58;16.50;;;8.50;;
57303;SDS011;43150;50.986;18.208;2023-02-01T17:10:29;15.50;;;5.80;;
57303;SDS011;43150;50.986;18.208;2023-02-01T17:12:55;12.10;;;4.70;;
57303;SDS011;43150;50.986;18.208;2023-02-01T17:15:31;6.50;;;3.20;;
57303;SDS011;43150;50.986;18.208;2023-02-01T17:18:01;11.70;;;3.90;;
57303;SDS011;43150;50.986;18.208;2023-02-01T17:20:28;7.20;;;4.30;;
57303;SDS011;43150;50.986;18.208;2023-02-01T17:22:55;14.90;;;5.80;;
57303;SDS011;43150;50.986;18.208;2023-02-01T17:25:21;12.20;;;4.20;;
57303;SDS011;43150;50.986;18.208;2023-02-01T17:27:48;9.40;;;3.80;;
57303;SDS011;43150;50.986;18.208;2023-02-01T17:30:14;6.60;;;3.10;;
57303;SDS011;43150;50.986;18.208;2023-02-01T17:32:40;8.20;;;2.90;;
57303;SDS011;43150;50.986;18.208;2023-02-01T17:35:40;9.10;;;4.00;;
57303;SDS011;43150;50.986;18.208;2023-02-01T17:37:59;6.90;;;3.30;;
57303;SDS011;43150;50.986;18.208;2023-02-01T17:40:24;6.80;;;3.50;;
57303;SDS011;43150;50.986;18.208;2023-02-01T17:42:52;8.50;;;4.30;;
57303;SDS011;43150;50.986;18.208;2023-02-01T17:45:42;8.70;;;3.30;;
57303;SDS011;43150;50.986;18.208;2023-02-01T17:48:14;6.30;;;2.50;;
57303;SDS011;43150;50.986;18.208;2023-02-01T17:50:40;6.20;;;2.40;;
57303;SDS011;43150;50.986;18.208;2023-02-01T17:53:06;6.00;;;2.80;;
57303;SDS011;43150;50.986;18.208;2023-02-01T17:55:34;6.60;;;2.70;;
57303;SDS011;43150;50.986;18.208;2023-02-01T17:58:00;8.50;;;2.80;;
57303;SDS011;43150;50.986;18.208;2023-02-01T18:00:32;8.20;;;3.20;;
57303;SDS011;43150;50.986;18.208;2023-02-01T18:02:59;9.30;;;4.50;;
57303;SDS011;43150;50.986;18.208;2023-02-01T18:05:27;6.90;;;3.10;;
57303;SDS011;43150;50.986;18.208;2023-02-01T18:08:05;8.00;;;3.90;;